Time;durP1;ratioP1;P1;durP2;ratioP2;P2;SDS_P1;SDS_P2;PMS_P1;PMS_P2;Temp;Humidity;BMP_temperature;BMP_pressure;BME280_temperature;BME280_humidity;BME280_pressure;Samples;Min_cycle;Max_cycle;Signal;HPM_P1;HPM_P2
2024/03/23 00:01:34;;;;;;;3.53;1.87;;;;;;;-145.69;62.28;52246.34;5173984;27;20641;-79
2024/03/23 00:04:04;;;;;;;4.67;2.10;;;;;;;-145.69;62.27;52244.38;5175159;27;20282;-78
2024/03/23 00:06:34;;;;;;;3.03;1.40;;;;;;;-145.69;62.04;52246.34;5175289;27;20203;-78
2024/03/23 00:09:04;;;;;;;3.50;1.70;;;;;;;-145.69;62.11;52236.44;5173927;27;20672;-78
2024/03/23 00:11:33;;;;;;;2.70;1.90;;;;;;;-145.69;61.78;52236.44;5174367;27;20223;-78
2024/03/23 00:14:03;;;;;;;3.43;1.80;;;;;;;-145.69;61.58;52242.38;5179203;27;20552;-78
2024/03/23 00:16:32;;;;;;;3.90;1.57;;;;;;;-145.69;61.60;52222.59;5177484;27;20224;-79
2024/03/23 00:19:03;;;;;;;4.67;1.87;;;;;;;-145.69;61.15;52266.16;5172130;27;20264;-78
2024/03/23 00:21:35;;;;;;;3.03;1.90;;;;;;;-145.69;61.43;52254.28;5158276;27;20302;-78
2024/03/23 00:24:05;;;;;;;1.63;1.50;;;;;;;-145.69;61.99;52254.28;5158224;27;20219;-78
2024/03/23 00:26:35;;;;;;;3.07;1.63;;;;;;;-145.69;61.43;52214.66;5158468;27;20200;-78
2024/03/23 00:29:05;;;;;;;3.63;1.70;;;;;;;-145.69;61.99;52226.53;5158080;27;20673;-78
2024/03/23 00:31:34;;;;;;;3.77;1.80;;;;;;;-145.69;61.44;52230.50;5157872;27;20223;-78
2024/03/23 00:34:04;;;;;;;2.83;1.57;;;;;;;-145.69;61.83;52224.56;5158140;27;20242;-78
2024/03/23 00:36:33;;;;;;;6.10;1.80;;;;;;;-145.69;60.72;52250.31;5158411;27;20204;-78
2024/03/23 00:39:03;;;;;;;7.53;1.93;;;;;;;-145.69;60.75;52252.28;5165429;27;20202;-79
2024/03/23 00:41:32;;;;;;;3.40;1.87;;;;;;;-145.69;60.54;52266.16;5178919;27;20227;-78
2024/03/23 00:44:02;;;;;;;3.00;1.80;;;;;;;-145.69;59.35;52272.09;5178530;27;20286;-78
2024/03/23 00:46:32;;;;;;;2.77;1.60;;;;;;;-145.69;59.14;52208.72;5178781;27;20196;-78
2024/03/23 00:49:02;;;;;;;4.97;2.20;;;;;;;-145.69;59.26;52264.16;5178430;27;20216;-79
2024/03/23 00:51:31;;;;;;;3.93;2.00;;;;;;;-145.69;59.76;52230.50;5178547;27;20219;-79
2024/03/23 00:54:01;;;;;;;2.37;1.70;;;;;;;-145.69;59.35;52254.28;5177473;27;20630;-78
2024/03/23 00:56:26;;;;;;;2.10;1.70;;;;;;;-145.69;59.35;52242.38;5177961;27;20194;-79
2024/03/23 00:58:52;;;;;;;4.83;1.30;;;;;;;-145.69;59.37;52238.44;5178545;27;20665;-78
2024/03/23 01:01:18;;;;;;;2.53;1.73;;;;;;;-145.69;59.17;52230.50;5178233;27;20202;-78
2024/03/23 01:03:44;;;;;;;3.47;1.73;;;;;;;-145.69;59.29;52238.44;5177899;27;20192;-78
2024/03/23 01:06:10;;;;;;;3.13;1.60;;;;;;;-145.69;59.38;52210.72;5165043;27;20184;-78
2024/03/23 01:08:36;;;;;;;5.77;1.60;;;;;;;-145.69;59.69;52238.44;5177858;27;20206;-78
2024/03/23 01:11:04;;;;;;;4.07;1.63;;;;;;;-145.69;60.39;52250.31;5162703;27;20239;-78
2024/03/23 01:13:30;;;;;;;7.57;2.00;;;;;;;-145.69;60.21;52226.53;5157218;27;20650;-78
2024/03/23 01:15:56;;;;;;;6.30;1.80;;;;;;;-145.69;59.49;52246.34;5157404;27;20653;-78
2024/03/23 01:18:26;;;;;;;5.67;1.50;;;;;;;-145.69;59.15;52238.44;5157897;27;20207;-78
2024/03/23 01:20:51;;;;;;;4.63;1.70;;;;;;;-145.69;58.72;52206.75;5156464;27;20197;-78
2024/03/23 01:23:18;;;;;;;3.10;1.60;;;;;;;-145.69;58.06;52206.75;5156786;27;20227;-78
2024/03/23 01:25:51;;;;;;;4.03;1.50;;;;;;;-145.69;58.72;52242.38;5156549;27;20235;-78
2024/03/23 01:28:18;;;;;;;2.50;1.70;;;;;;;-145.69;58.47;52204.75;5157189;27;20200;-79
2024/03/23 01:30:44;;;;;;;2.17;1.40;;;;;;;-145.69;58.16;52226.53;5156760;27;20257;-79
2024/03/23 01:33:10;;;;;;;3.50;1.80;;;;;;;-145.69;57.97;52252.28;5156661;27;20192;-79
2024/03/23 01:35:36;;;;;;;2.00;1.53;;;;;;;-145.69;57.41;52181.00;5172702;27;20199;-78
2024/03/23 01:38:02;;;;;;;2.07;1.30;;;;;;;-145.69;57.28;52250.31;5157465;27;20203;-79
2024/03/23 01:40:31;;;;;;;3.53;1.50;;;;;;;-145.69;57.08;52226.53;5156222;27;20196;-78
2024/03/23 01:42:58;;;;;;;4.17;1.80;;;;;;;-145.69;56.56;52214.66;5156525;27;20299;-77
2024/03/23 01:45:25;;;;;;;3.03;1.60;;;;;;;-145.69;56.50;52232.50;5166574;27;20248;-78
2024/03/23 01:47:52;;;;;;;2.43;1.20;;;;;;;-145.69;56.17;52218.63;5177187;27;20192;-79
2024/03/23 01:50:18;;;;;;;2.90;1.57;;;;;;;-145.69;57.06;52236.44;5177370;27;20650;-78
2024/03/23 01:52:45;;;;;;;6.03;2.00;;;;;;;-145.69;57.08;52230.50;5177026;27;20322;-79
2024/03/23 01:55:10;;;;;;;8.03;1.70;;;;;;;-145.69;56.59;52212.69;5177501;27;20626;-78
2024/03/23 01:57:37;;;;;;;2.13;1.50;;;;;;;-145.69;56.22;52206.75;5176808;27;20286;-80
2024/03/23 02:00:03;;;;;;;5.50;1.70;;;;;;;-145.69;56.11;52218.63;5177377;27;20224;-79
2024/03/23 02:02:31;;;;;;;2.90;1.80;;;;;;;-145.69;55.87;52238.44;5157520;27;20658;-79
2024/03/23 02:04:56;;;;;;;2.70;1.63;;;;;;;-145.69;55.87;52222.59;5166147;27;20270;-79
2024/03/23 02:07:23;;;;;;;3.53;1.48;;;;;;;-145.69;55.84;52198.81;5176423;27;20279;-78
2024/03/23 02:09:49;;;;;;;1.60;1.27;;;;;;;-145.69;56.22;52218.63;5177049;27;20244;-78
2024/03/23 02:12:16;;;;;;;3.90;1.60;;;;;;;-145.69;56.62;52202.78;5174821;27;20223;-78
2024/03/23 02:14:41;;;;;;;2.90;1.38;;;;;;;-145.69;55.88;52186.94;5157166;27;20562;-78
2024/03/23 02:17:08;;;;;;;3.70;2.10;;;;;;;-145.69;56.65;52218.63;5156321;27;20204;-79
2024/03/23 02:19:35;;;;;;;3.60;1.80;;;;;;;-145.69;56.12;52202.78;5156123;27;20261;-78
2024/03/23 02:22:02;;;;;;;7.72;1.88;;;;;;;-145.69;56.00;52222.59;5155978;27;20200;-78
2024/03/23 02:24:30;;;;;;;5.18;2.00;;;;;;;-145.69;56.75;52200.81;5155389;27;20595;-78
2024/03/23 02:26:57;;;;;;;7.50;1.70;;;;;;;-145.69;56.55;52218.63;5155633;27;20235;-79
2024/03/23 02:29:22;;;;;;;4.55;2.00;;;;;;;-145.69;56.75;52240.41;5156002;27;20192;-79
2024/03/23 02:31:49;;;;;;;2.40;1.53;;;;;;;-145.69;56.37;52222.59;5155883;27;20590;-79
2024/03/23 02:34:14;;;;;;;2.55;1.52;;;;;;;-145.69;56.93;52179.03;5155576;27;20677;-77
2024/03/23 02:36:40;;;;;;;3.05;1.88;;;;;;;-145.69;56.97;52244.38;5155712;27;20210;-77
2024/03/23 02:39:06;;;;;;;1.63;1.50;;;;;;;-145.69;56.60;52230.50;5155219;27;20207;-78
2024/03/23 02:41:34;;;;;;;5.28;2.13;;;;;;;-145.69;56.30;52202.78;5155286;27;20195;-78
2024/03/23 02:43:59;;;;;;;3.38;1.83;;;;;;;-145.69;57.08;52210.72;5155055;27;20596;-79
2024/03/23 02:46:26;;;;;;;9.75;2.08;;;;;;;-145.69;57.14;52206.75;5155582;27;20233;-80
2024/03/23 02:48:51;;;;;;;3.00;1.60;;;;;;;-145.69;56.36;52202.78;5155453;27;20200;-80
2024/03/23 02:51:17;;;;;;;3.00;1.48;;;;;;;-145.69;55.77;52177.03;5155708;27;20227;-79
2024/03/23 02:53:43;;;;;;;4.40;1.73;;;;;;;-145.69;55.45;52218.63;5175582;27;20234;-79
2024/03/23 02:56:13;;;;;;;4.38;1.90;;;;;;;-145.69;55.46;52175.06;5176048;27;20191;-78
2024/03/23 02:58:40;;;;;;;3.67;1.67;;;;;;;-145.69;54.95;52186.94;5176263;27;20195;-78
2024/03/23 03:01:06;;;;;;;2.50;1.80;;;;;;;-145.69;54.91;52214.66;5175451;27;20926;-78
2024/03/23 03:03:32;;;;;;;7.88;1.83;;;;;;;-145.69;54.76;52184.97;5162751;27;20196;-78
2024/03/23 03:05:59;;;;;;;3.53;1.67;;;;;;;-145.69;54.38;52190.91;5154780;27;20203;-78
2024/03/23 03:08:24;;;;;;;2.38;1.80;;;;;;;-145.69;54.09;52198.81;5155594;27;20625;-79
2024/03/23 03:10:50;;;;;;;2.13;1.45;;;;;;;-145.69;53.43;52198.81;5155215;27;20287;-78
2024/03/23 03:13:17;;;;;;;4.15;2.33;;;;;;;-145.69;53.93;52186.94;5154927;27;20224;-78
2024/03/23 03:15:44;;;;;;;3.35;1.80;;;;;;;-145.69;53.69;52175.06;5155033;27;20590;-78
2024/03/23 03:18:11;;;;;;;2.90;1.90;;;;;;;-145.69;53.84;52163.19;5154917;27;20566;-78
2024/03/23 03:20:39;;;;;;;3.75;1.52;;;;;;;-145.69;52.49;52177.03;5156755;27;20566;-77
2024/03/23 03:23:05;;;;;;;4.47;1.73;;;;;;;-145.69;52.30;52192.88;5154734;27;20217;-78
2024/03/23 03:25:31;;;;;;;3.42;1.80;;;;;;;-145.69;51.81;52171.09;5155512;27;20206;-79
2024/03/23 03:27:57;;;;;;;9.07;2.20;;;;;;;-145.69;51.44;52159.22;5154845;27;20196;-79
2024/03/23 03:30:23;;;;;;;2.75;1.60;;;;;;;-145.69;51.39;52171.09;5154757;27;20203;-79
2024/03/23 03:32:52;;;;;;;4.50;1.90;;;;;;;-145.69;51.46;52177.03;5160376;27;20219;-79
2024/03/23 03:35:18;;;;;;;4.25;1.38;;;;;;;-145.69;51.50;52169.13;5175181;27;20199;-78
2024/03/23 03:37:44;;;;;;;4.00;1.73;;;;;;;-145.69;50.88;52169.13;5175400;27;20199;-79
2024/03/23 03:40:11;;;;;;;4.10;1.80;;;;;;;-145.69;50.97;52194.88;5174775;27;20654;-81
2024/03/23 03:42:37;;;;;;;6.53;1.88;;;;;;;-145.69;50.61;52159.22;5172047;27;20661;-79
2024/03/23 03:45:04;;;;;;;8.00;1.50;;;;;;;-145.69;51.12;52163.19;5153848;27;20203;-79
2024/03/23 03:47:30;;;;;;;3.72;1.60;;;;;;;-145.69;50.30;52206.75;5154327;27;20196;-79
2024/03/23 03:49:57;;;;;;;3.15;1.55;;;;;;;-145.69;50.48;52177.03;5154313;27;20248;-79
2024/03/23 03:52:24;;;;;;;3.08;1.60;;;;;;;-145.69;50.70;52206.75;5154108;27;20265;-78
2024/03/23 03:54:51;;;;;;;5.22;2.13;;;;;;;-145.69;50.93;52228.53;5154585;27;20218;-79
2024/03/23 03:57:17;;;;;;;6.68;1.80;;;;;;;-145.69;51.35;52204.75;5154217;27;20741;-79
2024/03/23 03:59:42;;;;;;;2.50;1.52;;;;;;;-145.69;51.81;52175.06;5154244;27;20248;-79
2024/03/23 04:02:09;;;;;;;5.60;1.30;;;;;;;-145.69;51.80;52177.03;5154083;27;20200;-78
2024/03/23 04:04:34;;;;;;;2.47;1.60;;;;;;;-145.69;51.51;52184.97;5170022;27;20188;-79
2024/03/23 04:07:05;;;;;;;4.25;1.90;;;;;;;-145.69;50.53;52210.72;5175198;27;20668;-79
2024/03/23 04:09:30;;;;;;;2.10;1.40;;;;;;;-145.69;51.03;52204.75;5175052;27;20234;-78
2024/03/23 04:11:57;;;;;;;2.70;1.60;;;;;;;-145.69;51.09;52177.03;5174824;27;20322;-79
2024/03/23 04:14:22;;;;;;;5.32;1.67;;;;;;;-145.69;51.18;52186.94;5169942;27;20846;-79
2024/03/23 04:16:49;;;;;;;2.30;1.50;;;;;;;-145.69;50.90;52190.91;5154450;27;20207;-78
2024/03/23 04:19:15;;;;;;;3.63;1.60;;;;;;;-145.69;50.79;52194.88;5153941;27;20638;-79
2024/03/23 04:21:42;;;;;;;4.80;2.00;;;;;;;-145.69;50.42;52196.84;5154050;27;20207;-79
2024/03/23 04:24:08;;;;;;;3.67;2.05;;;;;;;-145.69;50.79;52202.78;5153938;27;20199;-79
2024/03/23 04:26:41;;;;;;;3.83;2.10;;;;;;;-145.69;49.87;52206.75;5153924;27;20195;-80
2024/03/23 04:29:07;;;;;;;7.28;2.10;;;;;;;-145.69;49.81;52179.03;5154226;27;20200;-80
2024/03/23 04:31:34;;;;;;;5.60;2.15;;;;;;;-145.69;50.01;52184.97;5153842;27;20227;-80
2024/03/23 04:34:00;;;;;;;2.50;1.60;;;;;;;-145.69;49.32;52163.19;5162785;27;20200;-80
2024/03/23 04:36:26;;;;;;;3.75;2.00;;;;;;;-145.69;49.29;52204.75;5153852;27;20239;-80
2024/03/23 04:38:52;;;;;;;3.58;1.98;;;;;;;-145.69;48.50;52167.13;5154031;27;20207;-79
2024/03/23 04:41:20;;;;;;;3.47;1.90;;;;;;;-145.69;48.77;52147.34;5153533;27;20196;-79
2024/03/23 04:43:47;;;;;;;3.92;1.50;;;;;;;-145.69;48.25;52159.22;5154245;27;20249;-78
2024/03/23 04:46:13;;;;;;;2.50;1.70;;;;;;;-145.69;48.07;52171.09;5153645;27;20593;-78
2024/03/23 04:48:39;;;;;;;6.95;2.30;;;;;;;-145.69;49.05;52147.34;5162061;27;20187;-78
2024/03/23 04:51:06;;;;;;;2.33;1.80;;;;;;;-145.69;49.13;52179.03;5167632;27;20196;-79
2024/03/23 04:53:33;;;;;;;3.17;1.73;;;;;;;-145.69;49.30;52177.03;5161562;27;20223;-78
2024/03/23 04:56:00;;;;;;;5.97;1.95;;;;;;;-145.69;49.91;52157.25;5174548;27;20281;-78
2024/03/23 04:58:27;;;;;;;5.85;2.10;;;;;;;-145.69;49.08;52169.13;5178564;27;20241;-78
2024/03/23 05:00:55;;;;;;;3.25;1.52;;;;;;;-145.69;48.43;52181.00;5178339;27;20720;-78
2024/03/23 05:03:21;;;;;;;6.70;1.83;;;;;;;-145.69;47.82;52190.91;5178389;27;20673;-78
2024/03/23 05:05:47;;;;;;;3.35;1.80;;;;;;;-145.69;48.11;52171.09;5178573;27;20322;-78
2024/03/23 05:08:14;;;;;;;3.42;1.90;;;;;;;-145.69;48.52;52175.06;5169598;27;20200;-78
2024/03/23 05:10:40;;;;;;;5.70;2.13;;;;;;;-145.69;48.59;52169.13;5158322;27;20202;-79
2024/03/23 05:13:07;;;;;;;6.03;1.90;;;;;;;-145.69;49.92;52157.25;5175726;27;20276;-79
2024/03/23 05:15:34;;;;;;;3.97;1.80;;;;;;;-145.69;49.92;52127.53;5178117;27;20554;-79
2024/03/23 05:18:01;;;;;;;6.40;1.95;;;;;;;-145.69;50.24;52179.03;5178477;27;20546;-78
2024/03/23 05:20:27;;;;;;;4.40;2.20;;;;;;;-145.69;50.53;52186.94;5178221;27;20211;-79
2024/03/23 05:22:53;;;;;;;4.00;2.20;;;;;;;-145.69;50.59;52177.03;5176265;27;20206;-79
2024/03/23 05:25:19;;;;;;;4.75;2.50;;;;;;;-145.69;50.82;52155.25;5166030;27;20195;-79
2024/03/23 05:27:45;;;;;;;4.20;1.83;;;;;;;-145.69;51.86;52196.84;5169891;27;20203;-78
2024/03/23 05:30:11;;;;;;;6.88;2.00;;;;;;;-145.69;51.41;52182.97;5177414;27;20653;-79
2024/03/23 05:32:40;;;;;;;8.48;2.20;;;;;;;-145.69;51.46;52163.19;5177149;27;20275;-79
2024/03/23 05:35:07;;;;;;;3.97;2.05;;;;;;;-145.69;51.88;52141.41;5177851;27;20198;-80
2024/03/23 05:37:33;;;;;;;5.43;2.13;;;;;;;-145.69;51.68;52173.09;5177293;27;20615;-78
2024/03/23 05:39:59;;;;;;;6.25;3.25;;;;;;;-145.69;59.68;52163.19;5177587;27;20286;-79
2024/03/23 05:42:26;;;;;;;9.52;2.60;;;;;;;-145.69;68.69;52177.03;5176761;27;20290;-80
2024/03/23 05:44:52;;;;;;;8.20;2.97;;;;;;;-145.69;76.19;52190.91;5177399;27;20757;-81
2024/03/23 05:47:18;;;;;;;3.83;2.97;;;;;;;-145.69;100.00;52218.63;5177302;27;20204;-81
2024/03/23 05:49:46;;;;;;;8.85;2.95;;;;;;;-145.69;100.00;52234.47;5177319;27;20196;-82
2024/03/23 05:52:13;;;;;;;3.88;2.75;;;;;;;-145.69;98.59;52206.75;5177597;27;20318;-81
2024/03/23 05:54:38;;;;;;;7.30;3.22;;;;;;;-145.69;89.77;52220.59;5176323;27;20199;-81
2024/03/23 05:57:07;;;;;;;6.63;3.33;;;;;;;-145.69;88.15;52230.50;5177283;27;20203;-81
2024/03/23 05:59:32;;;;;;;8.37;3.20;;;;;;;-145.69;87.40;52218.63;5176280;27;20666;-81
2024/03/23 06:01:59;;;;;;;5.23;3.13;;;;;;;-145.69;86.78;52252.28;5177628;27;20282;-81
2024/03/23 06:04:24;;;;;;;7.10;3.93;;;;;;;-145.69;87.69;52224.56;5176983;27;20653;-80
2024/03/23 06:06:53;;;;;;;7.17;4.20;;;;;;;-145.69;88.09;52252.28;5176620;27;20327;-81
2024/03/23 06:09:19;;;;;;;13.48;5.78;;;;;;;-145.69;89.44;52264.16;5176309;27;20462;-81
2024/03/23 06:11:45;;;;;;;10.20;5.07;;;;;;;-145.69;89.89;52238.44;5176885;27;20240;-81
2024/03/23 06:14:11;;;;;;;9.13;4.83;;;;;;;-145.69;90.15;52238.44;5176465;27;20199;-81
2024/03/23 06:16:37;;;;;;;11.50;4.50;;;;;;;-145.69;90.36;52234.47;5176185;27;20207;-81
2024/03/23 06:19:06;;;;;;;11.73;6.00;;;;;;;-145.69;88.74;52260.22;5172823;27;20187;-81
2024/03/23 06:21:35;;;;;;;15.17;7.43;;;;;;;-145.69;87.27;52246.34;5155694;27;20249;-81
2024/03/23 06:24:02;;;;;;;23.37;8.53;;;;;;;-145.69;86.66;52254.28;5162563;27;20191;-82
2024/03/23 06:26:29;;;;;;;19.33;8.53;;;;;;;-145.69;86.95;52276.06;5176528;27;20206;-82
2024/03/23 06:28:55;;;;;;;10.03;5.30;;;;;;;-145.69;87.81;52242.38;5176703;27;20506;-82
2024/03/23 06:31:22;;;;;;;20.47;9.47;;;;;;;-145.69;87.17;52262.19;5176572;27;20191;-82
2024/03/23 06:33:47;;;;;;;22.90;10.33;;;;;;;-145.69;86.18;52236.44;5175395;27;20238;-82
2024/03/23 06:36:14;;;;;;;21.07;9.83;;;;;;;-145.69;86.75;52250.31;5176502;27;20238;-81
2024/03/23 06:38:39;;;;;;;29.03;10.13;;;;;;;-145.69;86.49;52250.31;5176500;27;20678;-81
2024/03/23 06:41:07;;;;;;;27.43;11.67;;;;;;;-145.69;86.75;52264.16;5175986;27;20214;-81
2024/03/23 06:43:32;;;;;;;27.20;12.07;;;;;;;-145.69;86.49;52246.34;5175951;27;20191;-81
2024/03/23 06:45:59;;;;;;;29.50;11.00;;;;;;;-145.69;86.26;52270.13;5176493;27;20195;-81
2024/03/23 06:48:24;;;;;;;29.10;12.23;;;;;;;-145.69;85.61;52248.34;5176054;27;20200;-81
2024/03/23 06:50:56;;;;;;;29.10;12.27;;;;;;;-145.69;85.70;52266.16;5175353;27;20206;-81
2024/03/23 06:53:22;;;;;;;33.73;13.47;;;;;;;-145.69;86.21;52246.34;5175130;27;20239;-80
2024/03/23 06:55:52;;;;;;;31.47;13.20;;;;;;;-145.69;85.82;52260.22;5176213;27;20669;-80
2024/03/23 06:58:20;;;;;;;29.73;13.23;;;;;;;-145.69;85.13;52240.41;5176028;27;20290;-80
2024/03/23 07:00:46;;;;;;;33.23;13.83;;;;;;;-145.69;85.43;52256.25;5175484;27;20244;-80
2024/03/23 07:03:12;;;;;;;27.93;11.33;;;;;;;-145.69;86.08;52276.06;5176053;27;20248;-81
2024/03/23 07:05:38;;;;;;;31.77;13.63;;;;;;;-145.69;84.68;52262.19;5175872;27;20195;-81
2024/03/23 07:08:05;;;;;;;28.23;11.73;;;;;;;-145.69;88.09;52282.00;5175065;27;20203;-81
2024/03/23 07:10:31;;;;;;;24.53;9.77;;;;;;;-145.69;94.69;52295.84;5175878;27;20231;-81
2024/03/23 07:12:56;;;;;;;20.77;8.07;;;;;;;-145.69;88.37;52276.06;5175957;27;20226;-80
2024/03/23 07:15:24;;;;;;;17.70;7.90;;;;;;;-145.69;87.68;52282.00;5171228;27;20248;-81
2024/03/23 07:17:50;;;;;;;19.17;8.17;;;;;;;-145.69;87.09;52280.00;5154865;27;20252;-81
2024/03/23 07:20:16;;;;;;;20.37;8.40;;;;;;;-145.69;86.17;52274.06;5154217;27;20200;-81
2024/03/23 07:22:42;;;;;;;18.33;6.37;;;;;;;-145.69;86.71;52266.16;5154675;27;20204;-81
2024/03/23 07:25:09;;;;;;;12.67;4.90;;;;;;;-145.69;85.85;52242.38;5170728;27;20546;-81
2024/03/23 07:27:34;;;;;;;9.17;4.20;;;;;;;-145.69;85.12;52266.16;5175434;27;20203;-81
2024/03/23 07:30:01;;;;;;;7.93;3.83;;;;;;;-145.69;83.67;52278.03;5175603;27;20198;-81
2024/03/23 07:32:28;;;;;;;4.67;2.47;;;;;;;-145.69;84.51;52285.97;5175641;27;20453;-81
2024/03/23 07:34:54;;;;;;;3.80;1.60;;;;;;;-145.69;79.84;52303.78;5175333;27;20199;-81
2024/03/23 07:37:20;;;;;;;4.53;1.77;;;;;;;-145.69;81.98;52313.69;5175212;27;20608;-80
2024/03/23 07:39:46;;;;;;;3.43;1.87;;;;;;;-145.69;81.70;52282.00;5175657;27;20196;-81
2024/03/23 07:42:11;;;;;;;2.87;1.90;;;;;;;-145.69;81.73;52293.88;5174414;27;20654;-80
2024/03/23 07:44:38;;;;;;;1.87;1.30;;;;;;;-145.69;81.65;52287.94;5175325;27;20195;-81
2024/03/23 07:47:04;;;;;;;2.70;1.60;;;;;;;-145.69;81.83;52283.97;5175370;27;20745;-80
2024/03/23 07:49:31;;;;;;;4.30;1.30;;;;;;;-145.69;82.43;52266.16;5175252;27;20283;-81
2024/03/23 07:51:57;;;;;;;2.47;1.63;;;;;;;-145.69;81.59;52272.09;5175416;27;20255;-81
2024/03/23 07:54:23;;;;;;;2.80;1.63;;;;;;;-145.69;80.56;52274.06;5173669;27;20627;-80
2024/03/23 07:56:49;;;;;;;2.80;1.50;;;;;;;-145.69;80.52;52280.00;5174929;27;20634;-80
2024/03/23 07:59:15;;;;;;;3.43;1.53;;;;;;;-145.69;80.59;52309.72;5157864;27;20245;-79
2024/03/23 08:01:40;;;;;;;1.70;1.17;;;;;;;-145.69;80.82;52280.00;5154368;27;20245;-80
2024/03/23 08:04:07;;;;;;;2.37;1.00;;;;;;;-145.69;80.61;52262.19;5154247;27;20200;-80
2024/03/23 08:06:34;;;;;;;2.73;1.30;;;;;;;-145.69;80.33;52301.81;5154184;27;20196;-79
2024/03/23 08:09:00;;;;;;;1.77;1.20;;;;;;;-145.69;81.56;52327.53;5154303;27;20200;-80
2024/03/23 08:11:26;;;;;;;2.97;0.93;;;;;;;-145.69;78.10;52266.16;5153990;27;20192;-80
2024/03/23 08:13:52;;;;;;;1.90;0.90;;;;;;;-145.69;77.19;52289.91;5154028;27;20576;-80
2024/03/23 08:16:18;;;;;;;0.83;0.83;;;;;;;-145.69;77.33;52305.75;5158817;27;20206;-80
2024/03/23 08:18:45;;;;;;;1.30;0.87;;;;;;;-145.69;76.88;52293.88;5174837;27;20196;-81
2024/03/23 08:21:10;;;;;;;1.10;0.83;;;;;;;-145.69;77.63;52274.06;5175126;27;20207;-81
2024/03/23 08:23:39;;;;;;;2.53;1.03;;;;;;;-145.69;76.88;52285.97;5174269;27;20587;-80
2024/03/23 08:26:06;;;;;;;0.97;0.93;;;;;;;-145.69;78.75;52266.16;5174582;27;20199;-81
2024/03/23 08:28:32;;;;;;;1.60;1.20;;;;;;;-145.69;79.06;52315.66;5171245;27;20288;-80
2024/03/23 08:31:05;;;;;;;1.77;1.00;;;;;;;-145.69;80.34;52305.75;5155550;27;20200;-81
2024/03/23 08:33:32;;;;;;;1.63;1.20;;;;;;;-145.69;81.36;52287.94;5158508;27;20318;-81
2024/03/23 08:35:59;;;;;;;1.60;1.50;;;;;;;-145.69;81.55;52287.94;5158131;27;20200;-80
2024/03/23 08:38:27;;;;;;;2.97;1.63;;;;;;;-145.69;81.44;52341.41;5158041;27;20232;-80
2024/03/23 08:40:58;;;;;;;8.03;1.83;;;;;;;-145.69;80.94;52270.13;5157846;27;20677;-81
2024/03/23 08:43:24;;;;;;;5.50;2.20;;;;;;;-145.69;80.34;52289.91;5157796;27;20200;-80
2024/03/23 08:45:49;;;;;;;5.07;1.90;;;;;;;-145.69;80.66;52333.47;5157782;27;20199;-81
2024/03/23 08:48:16;;;;;;;8.77;2.33;;;;;;;-145.69;80.22;52333.47;5158092;27;20196;-80
2024/03/23 08:50:41;;;;;;;4.07;2.40;;;;;;;-145.69;80.36;52315.66;5161392;27;20199;-79
2024/03/23 08:53:08;;;;;;;5.37;2.53;;;;;;;-145.69;79.68;52309.72;5157485;27;20769;-80
2024/03/23 08:55:34;;;;;;;5.63;2.10;;;;;;;-145.69;79.83;52301.81;5162518;27;20191;-79
2024/03/23 08:58:01;;;;;;;5.77;2.23;;;;;;;-145.69;79.95;52325.56;5178232;27;20591;-80
2024/03/23 09:00:27;;;;;;;9.37;3.90;;;;;;;-145.69;79.12;52311.69;5174705;27;20244;-81
2024/03/23 09:02:53;;;;;;;4.30;2.47;;;;;;;-145.69;78.65;52303.78;5166812;27;20199;-80
2024/03/23 09:05:19;;;;;;;3.33;2.30;;;;;;;-145.69;78.48;52303.78;5176879;27;20310;-80
2024/03/23 09:07:45;;;;;;;5.70;2.63;;;;;;;-145.69;76.92;52301.81;5161661;27;20702;-81
2024/03/23 09:10:11;;;;;;;8.37;3.37;;;;;;;-145.69;77.00;52289.91;5157271;27;20257;-78
2024/03/23 09:12:37;;;;;;;6.00;2.90;;;;;;;-145.69;75.48;52307.75;5159623;27;20622;-80
2024/03/23 09:15:05;;;;;;;11.07;2.97;;;;;;;-145.69;73.56;52293.88;5157243;27;20696;-81
2024/03/23 09:17:31;;;;;;;7.03;2.90;;;;;;;-145.69;74.25;52285.97;5157426;27;20207;-79
2024/03/23 09:19:57;;;;;;;6.70;2.93;;;;;;;-145.69;74.73;52301.81;5156871;27;20647;-78
2024/03/23 09:22:24;;;;;;;10.53;3.50;;;;;;;-145.69;73.97;52309.72;5156647;27;20264;-79
2024/03/23 09:24:49;;;;;;;8.27;3.87;;;;;;;-145.69;72.00;52285.97;5165785;27;20195;-78
2024/03/23 09:27:15;;;;;;;6.97;3.37;;;;;;;-145.69;70.39;52274.06;5178058;27;20195;-79
2024/03/23 09:29:41;;;;;;;8.17;2.80;;;;;;;-145.69;71.00;52266.16;5177458;27;20206;-78
2024/03/23 09:32:09;;;;;;;7.30;2.80;;;;;;;-145.69;68.61;52289.91;5177825;27;20195;-78
2024/03/23 09:34:34;;;;;;;10.57;2.83;;;;;;;-145.69;69.76;52280.00;5177850;27;20622;-78
2024/03/23 09:37:00;;;;;;;10.53;2.93;;;;;;;-145.69;73.79;52289.91;5177560;27;20196;-78
2024/03/23 09:39:26;;;;;;;6.60;2.87;;;;;;;-145.69;76.36;52335.47;5177910;27;20195;-78
2024/03/23 09:41:57;;;;;;;7.73;2.97;;;;;;;-145.69;75.62;52303.78;5177085;27;20546;-78
2024/03/23 09:44:23;;;;;;;7.07;3.20;;;;;;;-145.69;76.30;52321.59;5177299;27;20404;-78
2024/03/23 09:46:51;;;;;;;12.63;3.40;;;;;;;-145.69;77.93;52303.78;5176994;27;20210;-79
2024/03/23 09:49:18;;;;;;;9.37;3.40;;;;;;;-145.69;78.90;52299.81;5177534;27;20199;-78
2024/03/23 09:51:45;;;;;;;7.53;3.63;;;;;;;-145.69;78.28;52278.03;5177154;27;20295;-77
2024/03/23 09:54:10;;;;;;;12.33;3.90;;;;;;;-145.69;76.75;52282.00;5172700;27;20220;-78
2024/03/23 09:56:37;;;;;;;10.67;4.10;;;;;;;-145.69;76.19;52258.22;5164115;27;20546;-79
2024/03/23 09:59:03;;;;;;;7.33;3.50;;;;;;;-145.69;75.79;52313.69;5177563;27;20195;-78
2024/03/23 10:01:30;;;;;;;12.80;3.67;;;;;;;-145.69;74.75;52280.00;5176552;27;20196;-77
2024/03/23 10:03:56;;;;;;;8.60;3.87;;;;;;;-145.69;72.95;52319.63;5177340;27;20203;-78
2024/03/23 10:06:25;;;;;;;11.87;3.77;;;;;;;-145.69;72.09;52274.06;5175182;27;20195;-79
2024/03/23 10:08:51;;;;;;;10.57;4.13;;;;;;;-145.69;70.54;52327.53;5176809;27;20280;-78
2024/03/23 10:11:18;;;;;;;10.13;3.53;;;;;;;-145.69;70.18;52276.06;5177392;27;20207;-81
2024/03/23 10:13:46;;;;;;;12.13;4.27;;;;;;;-145.69;71.04;52309.72;5176637;27;20704;-78
2024/03/23 10:16:12;;;;;;;10.13;3.80;;;;;;;-145.69;72.52;52317.66;5176737;27;20213;-77
2024/03/23 10:18:39;;;;;;;8.40;4.10;;;;;;;-145.69;71.08;52278.03;5176810;27;20203;-78
2024/03/23 10:21:11;;;;;;;16.60;4.77;;;;;;;-145.69;69.98;52278.03;5176488;27;20191;-77
2024/03/23 10:23:39;;;;;;;10.53;3.80;;;;;;;-145.69;70.08;52270.13;5176747;27;20208;-78
2024/03/23 10:26:23;;;;;;;11.73;4.50;;;;;;;-145.69;66.30;52246.34;5156162;27;20548;-77
2024/03/23 10:28:53;;;;;;;13.47;5.30;;;;;;;-145.69;65.91;52274.06;5156064;27;20234;-76
2024/03/23 10:31:20;;;;;;;10.70;4.27;;;;;;;-145.69;62.18;52297.84;5158948;27;20612;-77
2024/03/23 10:33:45;;;;;;;9.50;4.20;;;;;;;-145.69;63.02;52303.78;5155617;27;20702;-77
2024/03/23 10:36:11;;;;;;;13.80;4.67;;;;;;;-145.69;62.59;52274.06;5155213;27;20234;-76
2024/03/23 10:38:41;;;;;;;8.97;4.20;;;;;;;-145.69;63.21;52274.06;5155428;27;20228;-77
2024/03/23 10:41:09;;;;;;;11.80;3.70;;;;;;;-145.69;61.58;52248.34;5155641;27;20225;-78
2024/03/23 10:43:36;;;;;;;7.57;3.53;;;;;;;-145.69;61.70;52268.13;5155600;27;20203;-77
2024/03/23 10:46:02;;;;;;;13.87;4.30;;;;;;;-145.69;62.39;52252.28;5155405;27;20200;-77
2024/03/23 10:48:29;;;;;;;8.10;3.43;;;;;;;-145.69;60.40;52266.16;5155585;27;20200;-77
2024/03/23 10:50:54;;;;;;;11.27;3.20;;;;;;;-145.69;52.04;52278.03;5154694;27;20200;-78
2024/03/23 10:53:25;;;;;;;9.63;3.10;;;;;;;-145.69;52.29;52238.44;5154676;27;20242;-78
2024/03/23 10:55:54;;;;;;;8.30;2.70;;;;;;;-145.69;49.26;52220.59;5154814;27;20240;-77
2024/03/23 10:58:25;;;;;;;7.20;2.63;;;;;;;-145.69;47.93;52216.66;5155122;27;20232;-78
2024/03/23 11:00:53;;;;;;;12.67;3.27;;;;;;;-145.69;47.75;52246.34;5163233;27;20188;-79
2024/03/23 11:03:31;;;;;;;9.17;2.90;;;;;;;-145.69;46.61;52250.31;5171361;27;20203;-80
2024/03/23 11:05:56;;;;;;;9.18;2.55;;;;;;;-145.69;49.48;52234.47;5154859;27;20196;-81
2024/03/23 11:08:31;;;;;;;11.90;2.67;;;;;;;-145.69;48.79;52234.47;5155117;27;20199;-79
2024/03/23 11:13:56;;;;;;;8.48;2.80;;;;;;;-145.69;43.17;52214.66;5066048;28;20560;-78
2024/03/23 11:16:23;;;;;;;12.35;2.40;;;;;;;-145.69;44.54;52198.81;5066415;27;20203;-79